EGBB - Birmingham Airport
Distance from station: E 5mi, 14km
Updated: 12/15/2017 11:50am
Clear
Clear
 Wind from NW
Wind: NW 14 mph , 22 km/h
Temperature: 37°F , 3°C
Wind Chill: 28°F , -2°C
Dew Point: 32°F , 0°C
Humidity: 81%
Barometer: 29.8 inHg , 1009 hPa
Summary: Clear
Visibility: greater than 7 miles , 10 km
2017/12/15 19:50 EGBB 151950Z 32012KT CAVOK 03/00 Q1009